Date,TemperatureHighF,TemperatureAvgF,TemperatureLowF,DewpointHighF,DewpointAvgF,DewpointLowF,HumidityHigh,HumidityAvg,HumidityLow,PressureMaxIn,PressureMinIn,WindSpeedMaxMPH,WindSpeedAvgMPH,GustSpeedMaxMPH,PrecipitationSumIn
2013-4-1,54.9,42.3,33.9,44.1,37.3,16.1,96,83,48,29.79,29.43,13,4,25,0.63
2013-4-2,37.9,31.8,25.3,18.3,13.7,8.9,72,48,33,29.79,29.65,18,5,25,0.00
2013-4-3,43.9,34.7,27.4,19.8,13.8,6.7,72,44,23,30.02,29.77,16,6,28,0.02
2013-4-4,52.3,38.0,27.1,28.4,17.2,7.7,88,46,21,30.17,29.91,13,4,19,0.00
2013-4-5,59.1,43.9,33.7,29.6,24.9,18.9,68,49,22,29.91,29.59,12,5,21,0.00
2013-4-6,40.4,31.8,22.4,22.4,10.0,1.6,76,42,21,30.30,29.78,13,4,26,0.00
2013-4-7,47.4,36.4,19.3,37.9,26.7,13.9,85,69,41,30.30,29.91,15,4,26,0.00
2013-4-8,60.2,47.0,32.8,39.4,35.0,29.8,96,67,34,30.09,29.86,10,2,16,0.00
2013-4-9,48.9,42.3,34.9,44.5,39.9,32.5,97,91,82,30.07,29.84,6,1,9,0.44
2013-4-10,54.1,45.0,39.0,47.1,42.9,38.2,98,93,75,29.96,29.84,6,1,9,0.39
2013-4-11,52.7,44.9,39.1,43.7,29.9,14.9,98,61,26,30.14,29.82,10,2,15,0.03
2013-4-12,39.0,34.2,32.0,31.8,24.0,14.9,97,69,43,30.22,29.84,8,3,14,0.14
2013-4-13,46.7,37.8,32.0,38.8,34.6,31.0,97,89,69,29.87,29.75,6,2,10,0.36
2013-4-14,50.9,41.9,33.6,40.5,35.0,30.1,98,78,54,30.14,29.85,10,2,18,0.00
2013-4-15,52.9,41.3,27.0,40.6,34.7,25.3,96,79,50,30.37,30.14,11,3,15,0.00
2013-4-16,54.9,44.3,29.6,50.1,39.1,28.8,98,83,64,30.37,29.90,16,4,25,0.00
2013-4-17,60.7,52.8,38.7,51.8,32.1,23.6,85,48,26,30.30,29.90,12,4,20,0.00
2013-4-18,47.7,40.8,26.7,40.1,31.3,24.3,92,70,42,30.43,30.13,10,3,15,0.00
2013-4-19,69.6,55.7,45.8,58.6,51.1,39.9,96,85,67,30.12,29.56,17,6,25,0.00
2013-4-20,58.9,52.0,42.2,57.8,39.7,22.8,98,67,37,30.11,29.52,16,5,27,0.21
2013-4-21,51.2,40.0,26.3,27.2,21.2,14.0,90,49,24,30.66,30.11,11,3,19,0.00
2013-4-22,48.7,36.7,24.3,34.8,24.5,17.0,96,65,30,30.75,30.61,10,2,17,0.00
2013-4-23,43.0,35.9,25.4,39.6,33.3,24.4,97,91,80,30.62,30.16,8,2,14,0.00
2013-4-24,66.5,48.7,40.9,53.1,44.7,39.5,96,87,60,30.16,29.73,11,4,18,0.06
2013-4-25,62.9,52.9,35.5,49.5,36.9,28.8,97,59,30,30.25,29.73,12,3,17,0.03
2013-4-26,56.8,43.4,27.4,36.3,31.7,25.3,95,66,39,30.40,30.24,10,2,16,0.00
2013-4-27,60.8,43.6,28.2,43.4,36.1,27.5,97,78,38,30.38,30.27,8,2,12,0.00
2013-4-28,62.9,47.0,29.3,42.7,35.2,28.5,98,68,39,30.30,30.21,10,2,16,0.00
2013-4-29,61.3,46.3,32.2,47.5,39.1,31.0,97,78,45,30.23,30.16,10,2,14,0.00
2013-4-30,64.7,48.2,31.0,45.7,36.7,30.5,98,71,31,30.35,30.21,10,2,16,0.00